createdAt,value
2022-10-02T00:02:13.427Z,12.20
2022-10-02T00:04:49.932Z,12.20
2022-10-02T00:07:25.181Z,12.10
2022-10-02T00:10:00.778Z,12.10
2022-10-02T00:12:32.672Z,12.10
2022-10-02T00:15:14.733Z,12.10
2022-10-02T00:17:49.782Z,12.20
2022-10-02T00:20:24.154Z,12.20
2022-10-02T00:23:02.596Z,12.20
2022-10-02T00:25:40.842Z,12.20
2022-10-02T00:28:26.969Z,12.10
2022-10-02T00:31:20.086Z,12.10
2022-10-02T00:34:09.273Z,12.10
2022-10-02T00:36:49.246Z,12.20
2022-10-02T00:39:41.397Z,12.30
2022-10-02T00:42:57.287Z,12.40
2022-10-02T00:46:07.748Z,12.30
2022-10-02T00:48:51.832Z,12.30
2022-10-02T00:51:47.354Z,12.30
2022-10-02T00:54:31.157Z,12.30
2022-10-02T00:57:14.485Z,12.30
2022-10-02T01:00:03.248Z,12.20
2022-10-02T01:03:06.412Z,12.20
2022-10-02T01:05:35.511Z,12.20
2022-10-02T01:08:07.152Z,12.20
2022-10-02T01:10:38.893Z,12.20
2022-10-02T01:13:07.990Z,12.10
2022-10-02T01:15:41.077Z,12.00
2022-10-02T01:18:15.104Z,12.00
2022-10-02T01:20:49.077Z,12.00
2022-10-02T01:23:31.474Z,11.90
2022-10-02T01:26:01.954Z,11.90
2022-10-02T01:28:31.237Z,11.90
2022-10-02T01:31:08.564Z,11.80
2022-10-02T01:33:41.523Z,11.80
2022-10-02T01:36:12.763Z,11.70
2022-10-02T01:38:42.822Z,11.70
2022-10-02T01:41:13.795Z,11.70
2022-10-02T01:43:48.175Z,11.70
2022-10-02T01:46:32.578Z,11.70
2022-10-02T01:49:23.440Z,11.70
2022-10-02T01:52:14.345Z,11.70
2022-10-02T01:55:04.685Z,11.70
2022-10-02T01:57:55.267Z,11.70
2022-10-02T02:00:26.778Z,11.60
2022-10-02T02:03:09.800Z,11.60
2022-10-02T02:05:51.438Z,11.60
2022-10-02T02:08:31.579Z,11.60
2022-10-02T02:11:13.011Z,11.60
2022-10-02T02:13:50.375Z,11.70
2022-10-02T02:16:28.567Z,11.80
2022-10-02T02:19:06.757Z,11.90
2022-10-02T02:21:41.082Z,12.00
2022-10-02T02:24:16.559Z,12.00
2022-10-02T02:26:51.828Z,12.00
2022-10-02T02:29:26.601Z,11.90
2022-10-02T02:31:58.230Z,11.80
2022-10-02T02:34:34.566Z,11.70
2022-10-02T02:37:09.566Z,11.50
2022-10-02T02:39:46.926Z,11.40
2022-10-02T02:42:22.773Z,11.40
2022-10-02T02:45:02.838Z,11.30
2022-10-02T02:47:41.218Z,11.30
2022-10-02T02:50:17.240Z,11.30
2022-10-02T02:52:54.531Z,11.30
2022-10-02T02:55:30.293Z,11.20
2022-10-02T02:58:09.229Z,11.20
2022-10-02T03:00:39.607Z,11.20
2022-10-02T03:03:08.454Z,11.20
2022-10-02T03:05:44.020Z,11.20
2022-10-02T03:08:23.681Z,11.20
2022-10-02T03:11:08.043Z,11.30
2022-10-02T03:13:57.641Z,11.30
2022-10-02T03:16:46.886Z,11.40
2022-10-02T03:19:37.541Z,11.40
2022-10-02T03:22:14.283Z,11.40
2022-10-02T03:24:51.274Z,11.40
2022-10-02T03:27:30.298Z,11.50
2022-10-02T03:30:08.182Z,11.50
2022-10-02T03:32:40.495Z,11.50
2022-10-02T03:35:13.751Z,11.50
2022-10-02T03:37:47.850Z,11.50
2022-10-02T03:40:16.404Z,11.40
2022-10-02T03:42:44.898Z,11.50
2022-10-02T03:45:27.274Z,11.50
2022-10-02T03:48:03.157Z,11.50
2022-10-02T03:50:35.587Z,11.50
2022-10-02T03:53:14.621Z,11.50
2022-10-02T03:55:50.538Z,11.50
2022-10-02T03:58:19.950Z,11.40
2022-10-02T04:00:59.286Z,11.40
2022-10-02T04:03:36.600Z,11.30
2022-10-02T04:06:13.646Z,11.40
2022-10-02T04:08:48.902Z,11.40
2022-10-02T04:11:25.860Z,11.40
2022-10-02T04:14:06.541Z,11.40
2022-10-02T04:16:40.784Z,11.40
2022-10-02T04:19:21.538Z,11.30
2022-10-02T04:22:00.223Z,11.30
2022-10-02T04:24:38.435Z,11.30
2022-10-02T04:27:16.694Z,11.30
2022-10-02T04:29:56.055Z,11.30
2022-10-02T04:32:28.400Z,11.30
2022-10-02T04:35:00.358Z,11.20
2022-10-02T04:37:50.703Z,11.20
2022-10-02T04:40:50.243Z,11.20
2022-10-02T04:43:39.028Z,11.20
2022-10-02T04:46:24.737Z,11.20
2022-10-02T04:49:22.745Z,11.10
2022-10-02T04:52:17.716Z,11.10
2022-10-02T04:55:31.235Z,11.10
2022-10-02T04:58:43.433Z,11.20
2022-10-02T05:01:29.928Z,11.20
2022-10-02T05:04:23.828Z,11.20
2022-10-02T05:07:34.006Z,11.20
2022-10-02T05:10:21.945Z,11.30
2022-10-02T05:13:05.776Z,11.30
2022-10-02T05:16:20.986Z,11.30
2022-10-02T05:19:20.771Z,11.40
2022-10-02T05:22:24.167Z,11.50
2022-10-02T05:25:13.180Z,11.60
2022-10-02T05:28:09.327Z,11.60
2022-10-02T05:30:49.093Z,11.60
2022-10-02T05:33:46.034Z,11.60
2022-10-02T05:36:55.342Z,11.70
2022-10-02T05:39:31.893Z,11.70
2022-10-02T05:42:17.523Z,11.80
2022-10-02T05:44:55.107Z,11.80
2022-10-02T05:47:30.958Z,11.80
2022-10-02T05:50:10.860Z,11.80
2022-10-02T05:52:46.094Z,11.80
2022-10-02T05:55:24.111Z,11.80
2022-10-02T05:58:01.883Z,11.80
2022-10-02T06:00:41.405Z,11.80
2022-10-02T06:03:20.702Z,11.90
2022-10-02T06:05:55.717Z,12.00
2022-10-02T06:08:33.899Z,12.10
2022-10-02T06:11:11.439Z,12.20
2022-10-02T06:13:50.127Z,12.20
2022-10-02T06:16:27.198Z,12.20
2022-10-02T06:19:06.646Z,12.20
2022-10-02T06:21:44.155Z,12.40
2022-10-02T06:24:21.495Z,12.50
2022-10-02T06:26:58.364Z,12.70
2022-10-02T06:29:37.274Z,12.80
2022-10-02T06:32:19.118Z,13.10
2022-10-02T06:34:48.806Z,13.20
2022-10-02T06:37:39.609Z,13.30
2022-10-02T06:40:46.508Z,13.30
2022-10-02T06:43:48.628Z,13.20
2022-10-02T06:46:37.388Z,13.20
2022-10-02T06:49:16.815Z,13.40
2022-10-02T06:52:01.767Z,13.50
2022-10-02T06:54:49.641Z,13.80
2022-10-02T06:57:41.043Z,14.20
2022-10-02T07:00:13.615Z,14.60
2022-10-02T07:03:17.044Z,15.10
2022-10-02T07:06:03.000Z,15.10
2022-10-02T07:08:53.256Z,14.80
2022-10-02T07:11:32.539Z,14.60
2022-10-02T07:14:30.270Z,14.30
2022-10-02T07:17:23.904Z,14.20
2022-10-02T07:20:18.767Z,14.10
2022-10-02T07:23:13.532Z,14.00
2022-10-02T07:26:07.276Z,14.00
2022-10-02T07:28:43.504Z,14.30
2022-10-02T07:31:27.345Z,14.90
2022-10-02T07:34:15.870Z,15.20
2022-10-02T07:36:59.799Z,15.20
2022-10-02T07:39:46.885Z,15.40
2022-10-02T07:42:42.420Z,15.50
2022-10-02T07:45:35.209Z,15.70
2022-10-02T07:48:34.112Z,16.00
2022-10-02T07:51:49.931Z,15.90
2022-10-02T07:54:55.179Z,15.90
2022-10-02T07:57:33.980Z,16.00
2022-10-02T08:00:08.647Z,16.50
2022-10-02T08:02:52.987Z,16.90
2022-10-02T08:05:25.903Z,17.40
2022-10-02T08:08:00.751Z,17.80
2022-10-02T08:10:44.635Z,18.10
2022-10-02T08:13:20.842Z,18.40
2022-10-02T08:15:56.251Z,18.60
2022-10-02T08:18:35.248Z,18.90
2022-10-02T08:21:10.727Z,18.90
2022-10-02T08:23:47.233Z,19.20
2022-10-02T08:26:26.558Z,19.30
2022-10-02T08:29:05.659Z,19.30
2022-10-02T08:31:34.290Z,19.50
2022-10-02T08:34:17.503Z,19.70
2022-10-02T08:37:05.203Z,20.00
2022-10-02T08:40:28.435Z,20.20
2022-10-02T08:44:06.237Z,20.50
2022-10-02T08:47:33.171Z,20.80
2022-10-02T08:50:41.530Z,20.80
2022-10-02T08:54:02.526Z,20.90
2022-10-02T08:57:14.743Z,21.10
2022-10-02T09:00:15.125Z,20.60
2022-10-02T09:03:44.225Z,20.00
2022-10-02T09:06:52.250Z,19.50
2022-10-02T09:10:18.234Z,19.30
2022-10-02T09:13:41.788Z,19.10
2022-10-02T09:16:20.349Z,18.80
2022-10-02T09:19:01.563Z,18.40
2022-10-02T09:21:56.327Z,18.30
2022-10-02T09:25:02.651Z,18.10
2022-10-02T09:28:38.464Z,17.90
2022-10-02T09:32:12.373Z,18.10
2022-10-02T09:35:36.188Z,18.60
2022-10-02T09:38:42.593Z,19.40
2022-10-02T09:41:50.090Z,20.10
2022-10-02T09:45:07.911Z,20.60
2022-10-02T09:48:25.101Z,20.80
2022-10-02T09:52:22.386Z,20.70
2022-10-02T09:55:37.257Z,20.50
2022-10-02T09:59:18.610Z,20.80
2022-10-02T10:02:30.822Z,20.80
2022-10-02T10:05:43.640Z,20.30
2022-10-02T10:09:06.416Z,20.20
2022-10-02T10:12:31.270Z,20.20
2022-10-02T10:16:01.268Z,20.30
2022-10-02T10:19:23.708Z,20.50
2022-10-02T10:22:58.870Z,20.40
2022-10-02T10:26:05.627Z,20.20
2022-10-02T10:29:15.194Z,19.90
2022-10-02T10:32:30.935Z,19.80
2022-10-02T10:35:37.053Z,19.80
2022-10-02T10:38:36.362Z,19.70
2022-10-02T10:42:11.871Z,19.40
2022-10-02T10:45:22.735Z,19.50
2022-10-02T10:48:23.829Z,19.70
2022-10-02T10:51:02.655Z,20.00
2022-10-02T10:54:04.731Z,20.30
2022-10-02T10:56:44.513Z,20.50
2022-10-02T10:59:56.787Z,20.40
2022-10-02T11:03:07.031Z,20.10
2022-10-02T11:06:08.111Z,19.90
2022-10-02T11:09:33.597Z,19.40
2022-10-02T11:12:34.054Z,19.20
2022-10-02T11:15:27.615Z,19.00
2022-10-02T11:18:22.207Z,18.80
2022-10-02T11:21:30.562Z,18.50
2022-10-02T11:24:26.951Z,18.60
2022-10-02T11:27:31.319Z,18.50
2022-10-02T11:30:24.703Z,18.30
2022-10-02T11:33:49.794Z,18.30
2022-10-02T11:36:48.523Z,18.20
2022-10-02T11:39:43.020Z,18.40
2022-10-02T11:42:40.832Z,18.50
2022-10-02T11:45:44.373Z,18.50
2022-10-02T11:49:00.599Z,18.50
2022-10-02T11:51:54.475Z,18.40
2022-10-02T11:55:00.935Z,18.40
2022-10-02T11:57:48.819Z,18.20
2022-10-02T12:01:14.804Z,18.00
2022-10-02T12:04:12.754Z,17.90
2022-10-02T12:07:06.005Z,17.70
2022-10-02T12:09:54.593Z,17.60
2022-10-02T12:12:44.528Z,17.50
2022-10-02T12:15:31.375Z,17.40
2022-10-02T12:18:22.720Z,17.40
2022-10-02T12:21:38.486Z,17.40
2022-10-02T12:24:43.286Z,17.50
2022-10-02T12:27:23.252Z,17.40
2022-10-02T12:30:07.102Z,17.30
2022-10-02T12:33:18.319Z,17.20
2022-10-02T12:36:05.303Z,17.10
2022-10-02T12:38:55.493Z,17.10
2022-10-02T12:42:01.069Z,17.20
2022-10-02T12:44:51.327Z,17.20
2022-10-02T12:47:48.704Z,17.20
2022-10-02T12:50:53.031Z,17.40
2022-10-02T12:54:33.414Z,17.50
2022-10-02T12:57:55.371Z,17.40
2022-10-02T13:00:32.057Z,17.40
2022-10-02T13:03:57.928Z,17.70
2022-10-02T13:07:26.096Z,17.80
2022-10-02T13:10:04.082Z,17.90
2022-10-02T13:12:56.855Z,18.00
2022-10-02T13:15:39.850Z,18.00
2022-10-02T13:18:35.267Z,17.90
2022-10-02T13:21:15.768Z,17.70
2022-10-02T13:24:08.994Z,17.60
2022-10-02T13:26:49.363Z,17.60
2022-10-02T13:29:45.942Z,17.50
2022-10-02T13:32:56.255Z,17.30
2022-10-02T13:35:44.310Z,17.20
2022-10-02T13:38:46.803Z,16.80
2022-10-02T13:41:33.536Z,16.30
2022-10-02T13:44:16.218Z,15.70
2022-10-02T13:47:11.225Z,15.10
2022-10-02T13:50:00.874Z,14.70
2022-10-02T13:52:45.278Z,14.30
2022-10-02T13:55:25.577Z,13.90
2022-10-02T13:58:20.556Z,13.60
2022-10-02T14:01:05.029Z,13.40
2022-10-02T14:03:55.945Z,13.30
2022-10-02T14:06:32.627Z,13.20
2022-10-02T14:09:26.981Z,13.10
2022-10-02T14:12:28.646Z,13.00
2022-10-02T14:15:30.362Z,12.80
2022-10-02T14:18:49.310Z,12.90
2022-10-02T14:21:30.930Z,12.90
2022-10-02T14:24:44.546Z,12.80
2022-10-02T14:27:42.882Z,12.80
2022-10-02T14:30:19.112Z,12.80
2022-10-02T14:33:10.233Z,13.00
2022-10-02T14:35:55.909Z,13.00
2022-10-02T14:38:49.650Z,13.10
2022-10-02T14:41:49.103Z,13.10
2022-10-02T14:44:41.105Z,13.10
2022-10-02T14:47:52.646Z,13.20
2022-10-02T14:50:43.287Z,13.40
2022-10-02T14:53:34.688Z,13.60
2022-10-02T14:56:41.926Z,13.70
2022-10-02T14:59:37.715Z,13.80
2022-10-02T15:02:35.383Z,13.80
2022-10-02T15:05:32.581Z,13.80
2022-10-02T15:08:13.010Z,13.90
2022-10-02T15:10:43.326Z,14.00
2022-10-02T15:13:26.711Z,14.00
2022-10-02T15:16:21.156Z,14.00
2022-10-02T15:19:02.421Z,14.00
2022-10-02T15:21:40.429Z,14.00
2022-10-02T15:24:33.796Z,14.00
2022-10-02T15:27:22.242Z,13.90
2022-10-02T15:30:15.222Z,13.80
2022-10-02T15:33:10.928Z,13.70
2022-10-02T15:36:03.027Z,13.70
2022-10-02T15:39:17.113Z,13.70
2022-10-02T15:42:04.497Z,13.80
2022-10-02T15:45:07.489Z,13.70
2022-10-02T15:48:10.000Z,13.70
2022-10-02T15:50:53.723Z,13.60
2022-10-02T15:53:37.353Z,13.50
2022-10-02T15:56:39.761Z,13.60
2022-10-02T15:59:31.634Z,13.60
2022-10-02T16:02:24.694Z,13.60
2022-10-02T16:05:15.183Z,13.60
2022-10-02T16:08:16.462Z,13.60
2022-10-02T16:11:13.738Z,13.60
2022-10-02T16:13:55.354Z,13.60
2022-10-02T16:16:53.600Z,13.60
2022-10-02T16:19:48.611Z,13.50
2022-10-02T16:22:42.289Z,13.40
2022-10-02T16:25:46.170Z,13.40
2022-10-02T16:28:34.043Z,13.30
2022-10-02T16:31:23.488Z,13.20
2022-10-02T16:34:03.811Z,13.20
2022-10-02T16:36:43.893Z,13.10
2022-10-02T16:39:33.703Z,13.10
2022-10-02T16:42:20.027Z,13.00
2022-10-02T16:45:27.409Z,13.10
2022-10-02T16:48:10.410Z,13.10
2022-10-02T16:51:06.858Z,13.30
2022-10-02T16:53:45.074Z,13.40
2022-10-02T16:56:23.141Z,13.40
2022-10-02T16:59:03.128Z,13.30
2022-10-02T17:01:59.491Z,13.30
2022-10-02T17:04:56.171Z,13.20
2022-10-02T17:07:43.437Z,13.10
2022-10-02T17:10:32.907Z,13.10
2022-10-02T17:13:19.873Z,13.00
2022-10-02T17:15:55.502Z,13.00
2022-10-02T17:18:39.481Z,12.90
2022-10-02T17:21:18.174Z,12.90
2022-10-02T17:24:19.114Z,12.80
2022-10-02T17:26:57.448Z,12.80
2022-10-02T17:29:35.585Z,12.80
2022-10-02T17:32:06.255Z,12.90
2022-10-02T17:34:49.078Z,12.90
2022-10-02T17:38:06.431Z,13.00
2022-10-02T17:40:49.889Z,13.00
2022-10-02T17:43:31.422Z,12.90
2022-10-02T17:46:32.820Z,13.00
2022-10-02T17:49:11.339Z,13.00
2022-10-02T17:51:53.628Z,13.00
2022-10-02T17:55:08.369Z,13.10
2022-10-02T17:58:01.318Z,13.10
2022-10-02T18:00:36.949Z,13.10
2022-10-02T18:03:52.155Z,12.90
2022-10-02T18:06:35.873Z,12.90
2022-10-02T18:09:44.977Z,12.90
2022-10-02T18:12:46.499Z,12.80
2022-10-02T18:15:56.085Z,12.80
2022-10-02T18:18:35.361Z,12.70
2022-10-02T18:21:28.738Z,12.70
2022-10-02T18:24:27.664Z,12.70
2022-10-02T18:27:23.054Z,12.70
2022-10-02T18:30:08.738Z,12.70
2022-10-02T18:33:14.403Z,12.70
2022-10-02T18:36:02.114Z,12.80
2022-10-02T18:38:43.145Z,12.80
2022-10-02T18:41:41.010Z,12.80
2022-10-02T18:44:35.034Z,12.80
2022-10-02T18:47:24.029Z,12.90
2022-10-02T18:50:23.819Z,12.80
2022-10-02T18:53:17.585Z,12.90
2022-10-02T18:56:05.423Z,12.90
2022-10-02T18:58:50.647Z,12.80
2022-10-02T19:01:43.921Z,12.80
2022-10-02T19:04:45.380Z,12.80
2022-10-02T19:07:21.797Z,12.80
2022-10-02T19:10:21.239Z,12.80
2022-10-02T19:12:57.156Z,12.90
2022-10-02T19:15:30.042Z,12.90
2022-10-02T19:18:02.454Z,12.80
2022-10-02T19:20:52.018Z,12.90
2022-10-02T19:23:30.242Z,12.90
2022-10-02T19:26:06.989Z,13.00
2022-10-02T19:28:46.486Z,12.90
2022-10-02T19:31:24.283Z,12.90
2022-10-02T19:33:57.741Z,12.90
2022-10-02T19:36:32.133Z,12.80
2022-10-02T19:39:04.329Z,12.90
2022-10-02T19:41:42.127Z,12.80
2022-10-02T19:44:24.814Z,12.90
2022-10-02T19:46:58.313Z,12.90
2022-10-02T19:49:32.230Z,12.90
2022-10-02T19:52:04.162Z,12.90
2022-10-02T19:54:38.423Z,12.90
2022-10-02T19:57:14.795Z,13.00
2022-10-02T19:59:52.210Z,13.00
2022-10-02T20:02:28.560Z,13.00
2022-10-02T20:05:01.706Z,13.00
2022-10-02T20:07:37.707Z,13.00
2022-10-02T20:10:15.152Z,13.10
2022-10-02T20:12:51.863Z,13.10
2022-10-02T20:15:59.607Z,13.10
2022-10-02T20:18:28.620Z,13.10
2022-10-02T20:21:07.881Z,13.10
2022-10-02T20:23:43.140Z,13.10
2022-10-02T20:26:15.747Z,13.10
2022-10-02T20:28:52.014Z,13.10
2022-10-02T20:31:35.810Z,13.10
2022-10-02T20:34:17.622Z,13.10
2022-10-02T20:36:58.460Z,13.00
2022-10-02T20:39:37.304Z,12.90
2022-10-02T20:42:14.654Z,12.80
2022-10-02T20:44:43.385Z,12.70
2022-10-02T20:47:47.485Z,12.70
2022-10-02T20:50:40.390Z,12.60
2022-10-02T20:53:58.523Z,12.50
2022-10-02T20:57:00.299Z,12.40
2022-10-02T21:00:05.361Z,12.40
2022-10-02T21:03:18.125Z,12.30
2022-10-02T21:06:28.432Z,12.40
2022-10-02T21:09:33.855Z,12.30
2022-10-02T21:12:50.389Z,12.30
2022-10-02T21:15:52.650Z,12.40
2022-10-02T21:18:48.454Z,12.40
2022-10-02T21:22:01.521Z,12.40
2022-10-02T21:25:19.149Z,12.40
2022-10-02T21:28:41.150Z,12.40
2022-10-02T21:31:36.385Z,12.40
2022-10-02T21:34:25.039Z,12.40
2022-10-02T21:37:00.544Z,12.40
2022-10-02T21:40:26.666Z,12.40
2022-10-02T21:44:03.547Z,12.40
2022-10-02T21:47:28.394Z,12.50
2022-10-02T21:50:58.347Z,12.40
2022-10-02T21:54:14.112Z,12.40
2022-10-02T21:57:48.078Z,12.40
2022-10-02T22:00:22.306Z,12.40
2022-10-02T22:03:50.938Z,12.40
2022-10-02T22:06:37.388Z,12.40
2022-10-02T22:09:28.671Z,12.40
2022-10-02T22:12:18.842Z,12.30
2022-10-02T22:15:04.345Z,12.20
2022-10-02T22:17:48.946Z,12.20
2022-10-02T22:21:00.774Z,12.10
2022-10-02T22:23:58.879Z,12.20
2022-10-02T22:27:01.446Z,12.30
2022-10-02T22:29:44.258Z,12.30
2022-10-02T22:33:13.159Z,12.30
2022-10-02T22:36:20.545Z,12.30
2022-10-02T22:39:00.688Z,12.30
2022-10-02T22:41:38.484Z,12.20
2022-10-02T22:44:20.762Z,12.20
2022-10-02T22:46:57.411Z,12.10
2022-10-02T22:49:38.539Z,12.10
2022-10-02T22:52:17.486Z,12.10
2022-10-02T22:54:56.009Z,12.10
2022-10-02T22:57:39.184Z,12.00
2022-10-02T23:00:18.510Z,12.00
2022-10-02T23:02:56.392Z,12.10
2022-10-02T23:05:34.208Z,12.10
2022-10-02T23:08:18.765Z,12.10
2022-10-02T23:10:54.315Z,12.10
2022-10-02T23:13:28.894Z,12.00
2022-10-02T23:16:05.672Z,12.00
2022-10-02T23:18:46.249Z,12.00
2022-10-02T23:21:39.158Z,12.10
2022-10-02T23:24:26.323Z,12.00
2022-10-02T23:27:10.380Z,12.10
2022-10-02T23:29:53.073Z,12.10
2022-10-02T23:32:31.910Z,12.10
2022-10-02T23:35:12.779Z,12.10
2022-10-02T23:37:55.206Z,12.10
2022-10-02T23:40:43.967Z,12.10
2022-10-02T23:43:33.699Z,12.10
2022-10-02T23:46:09.209Z,12.10
2022-10-02T23:48:39.915Z,12.10
2022-10-02T23:51:24.171Z,12.10
2022-10-02T23:54:40.179Z,12.20
2022-10-02T23:57:44.135Z,12.10
